Time;durP1;ratioP1;P1;durP2;ratioP2;P2;SDS_P1;SDS_P2;PMS_P1;PMS_P2;Temp;Humidity;BMP_temperature;BMP_pressure;BME280_temperature;BME280_humidity;BME280_pressure;Samples;Min_cycle;Max_cycle;Signal;HPM_P1;HPM_P2
2022/09/19 00:01:49;;;;;;;7.05;1.42;;;;;;;17.52;50.04;100268.13;5007015;28;20058;-85
2022/09/19 00:04:35;;;;;;;3.05;1.20;;;;;;;17.84;49.40;100265.78;5001523;28;20053;-85
2022/09/19 00:07:20;;;;;;;6.18;1.20;;;;;;;17.67;46.74;100271.88;5001681;28;20065;-85
2022/09/19 00:10:06;;;;;;;;;;;;;;;17.24;47.34;100267.72;5002263;28;20054;-84
2022/09/19 00:12:51;;;;;;;7.32;1.35;;;;;;;17.34;48.53;100261.56;5005680;28;20312;-84
2022/09/19 00:15:36;;;;;;;;;;;;;;;17.21;48.48;100255.53;5001283;28;20053;-85
2022/09/19 00:18:21;;;;;;;3.40;1.48;;;;;;;17.30;47.80;100264.28;4985988;28;19914;-84
2022/09/19 00:21:06;;;;;;;4.38;0.85;;;;;;;17.70;48.83;100265.63;4986424;28;20053;-84
2022/09/19 00:26:55;;;;;;;5.72;0.98;;;;;;;17.57;49.21;100259.53;4986828;28;20053;-84
2022/09/19 00:29:43;;;;;;;3.47;1.17;;;;;;;18.12;48.91;100243.31;4985592;28;20045;-84
2022/09/19 00:32:28;;;;;;;3.38;1.10;;;;;;;18.35;48.20;100265.94;4986603;28;20529;-83
2022/09/19 00:35:13;;;;;;;11.32;1.10;;;;;;;18.84;47.92;100253.84;4981935;28;20050;-82
2022/09/19 00:37:58;;;;;;;;;;;;;;;19.21;47.21;100254.47;4986970;28;20046;-83
2022/09/19 00:40:43;;;;;;;2.00;0.95;;;;;;;19.01;46.72;100239.38;4981849;28;20285;-83
2022/09/19 00:43:53;;;;;;;6.03;0.90;;;;;;;19.19;45.11;100230.06;4982117;28;20247;-84
2022/09/19 00:46:37;;;;;;;1.83;0.77;;;;;;;19.02;46.65;100221.69;4980922;28;20069;-84
2022/09/19 00:49:25;;;;;;;5.10;1.05;;;;;;;18.91;45.77;100212.53;4982343;28;20054;-85
2022/09/19 00:52:21;;;;;;;4.00;1.13;;;;;;;18.26;45.20;100208.47;4981150;28;20461;-86
2022/09/19 00:55:07;;;;;;;5.45;1.00;;;;;;;17.96;47.66;100207.78;4980929;28;20046;-86
2022/09/19 00:58:10;;;;;;;2.40;1.27;;;;;;;18.10;47.47;100205.16;4986556;28;20078;-85
2022/09/19 01:00:56;;;;;;;1.92;0.57;;;;;;;18.14;47.38;100222.50;4984703;28;20046;-84
2022/09/19 01:03:41;;;;;;;3.47;0.95;;;;;;;17.84;46.87;100217.06;4982424;28;20122;-85
2022/09/19 01:06:55;;;;;;;3.15;1.00;;;;;;;17.59;48.34;100212.41;4986412;28;20053;-85
2022/09/19 01:09:43;;;;;;;7.43;1.00;;;;;;;17.26;48.52;100215.94;4980739;28;20050;-84
2022/09/19 01:12:47;;;;;;;2.15;0.80;;;;;;;17.64;49.38;100212.91;4986471;28;20058;-85
2022/09/19 01:15:44;;;;;;;4.05;0.70;;;;;;;17.59;49.39;100207.75;4980630;28;20050;-85
2022/09/19 01:18:47;;;;;;;1.27;0.85;;;;;;;17.65;49.18;100197.19;4985980;28;20517;-85
2022/09/19 01:21:59;;;;;;;1.50;0.65;;;;;;;18.46;48.81;100200.75;4985739;28;20057;-85
2022/09/19 01:24:56;;;;;;;5.40;1.02;;;;;;;18.32;46.44;100197.91;4980334;28;20065;-85
2022/09/19 01:27:59;;;;;;;1.83;0.80;;;;;;;18.17;49.08;100196.97;4980186;28;20050;-85
2022/09/19 01:31:16;;;;;;;1.27;0.90;;;;;;;18.41;47.65;100198.38;4980496;28;20521;-85
2022/09/19 01:34:05;;;;;;;2.72;0.73;;;;;;;18.30;46.27;100201.03;4985076;28;20050;-85
2022/09/19 01:37:17;;;;;;;3.30;0.70;;;;;;;18.05;46.60;100193.69;4985467;28;20061;-86
2022/09/19 01:40:06;;;;;;;3.33;1.00;;;;;;;17.64;46.86;100196.41;4978721;28;20402;-85
2022/09/19 01:42:59;;;;;;;1.20;1.05;;;;;;;17.36;48.50;100191.34;4986049;28;20045;-85
2022/09/19 01:45:46;;;;;;;3.47;1.08;;;;;;;16.90;48.75;100184.41;4979500;28;20077;-85
2022/09/19 01:48:53;;;;;;;5.60;0.82;;;;;;;16.92;50.10;100193.06;4986032;28;20046;-85
2022/09/19 01:51:50;;;;;;;2.05;0.73;;;;;;;17.72;50.19;100181.59;4996318;28;20038;-86
2022/09/19 01:55:01;;;;;;;1.73;0.65;;;;;;;18.26;48.58;100200.22;4998192;28;20038;-85
2022/09/19 01:58:08;;;;;;;5.47;0.80;;;;;;;18.66;48.08;100199.38;5000326;28;20065;-86
2022/09/19 02:01:28;;;;;;;3.83;1.00;;;;;;;18.73;47.01;100185.69;4989993;28;20101;-86
2022/09/19 02:04:20;;;;;;;4.00;0.68;;;;;;;18.27;47.33;100184.47;4987250;28;20071;-87
2022/09/19 02:07:23;;;;;;;4.50;0.75;;;;;;;18.71;47.71;100201.78;4989033;28;20050;-84
2022/09/19 02:10:16;;;;;;;8.40;1.50;;;;;;;18.97;47.07;100200.00;4980106;28;20041;-85
2022/09/19 02:13:04;;;;;;;1.55;0.80;;;;;;;19.10;45.89;100198.47;4980243;28;20042;-85
2022/09/19 02:16:12;;;;;;;2.65;0.82;;;;;;;19.08;44.86;100198.09;4980275;28;20046;-84
2022/09/19 02:19:01;;;;;;;2.38;0.80;;;;;;;18.97;45.82;100205.50;4979239;28;20046;-84
2022/09/19 02:21:53;;;;;;;11.88;1.10;;;;;;;18.46;44.92;100197.22;4984484;28;20045;-84
2022/09/19 02:24:42;;;;;;;4.95;1.05;;;;;;;17.78;46.17;100198.50;4979693;28;20041;-84
2022/09/19 02:27:35;;;;;;;5.35;1.10;;;;;;;17.50;47.30;100201.72;4979870;28;20057;-83
2022/09/19 02:30:21;;;;;;;2.40;0.93;;;;;;;16.98;48.19;100199.81;4979508;28;20058;-86
2022/09/19 02:33:06;;;;;;;2.35;0.85;;;;;;;17.64;49.28;100196.41;4979510;28;20052;-86
2022/09/19 02:36:05;;;;;;;3.70;0.75;;;;;;;17.85;48.01;100199.41;4978850;28;20049;-85
2022/09/19 02:39:18;;;;;;;1.58;0.70;;;;;;;18.32;48.55;100208.91;4984683;28;20045;-86
2022/09/19 02:42:33;;;;;;;3.00;0.90;;;;;;;18.33;46.05;100205.78;4979822;28;20046;-86
2022/09/19 02:45:28;;;;;;;3.45;1.25;;;;;;;18.66;47.46;100195.84;4980147;28;20123;-85
2022/09/19 02:48:29;;;;;;;4.63;0.93;;;;;;;18.95;46.80;100196.81;4984681;28;20062;-87
2022/09/19 02:51:30;;;;;;;2.13;0.80;;;;;;;19.12;46.40;100180.41;4979314;28;20053;-86
2022/09/19 02:54:26;;;;;;;2.28;0.50;;;;;;;19.14;46.63;100199.31;4982889;28;20049;-86
2022/09/19 02:57:16;;;;;;;;;;;;;;;19.27;45.83;100185.97;4980120;28;20050;-85
2022/09/19 03:00:04;;;;;;;1.77;0.70;;;;;;;19.06;45.14;100194.91;4979661;28;20362;-85
2022/09/19 03:03:00;;;;;;;9.40;1.23;;;;;;;18.96;46.16;100184.63;4980184;28;20055;-85
2022/09/19 03:05:59;;;;;;;1.42;0.60;;;;;;;19.03;45.88;100181.91;4977891;28;20050;-86
2022/09/19 03:08:48;;;;;;;2.55;1.00;;;;;;;19.00;46.27;100183.47;4979584;28;20042;-86
2022/09/19 03:11:39;;;;;;;5.63;0.85;;;;;;;19.27;45.77;100181.25;4984277;28;20054;-85
2022/09/19 03:14:24;;;;;;;3.88;0.80;;;;;;;19.41;45.41;100186.81;4982687;28;20049;-87
2022/09/19 03:17:16;;;;;;;1.55;0.50;;;;;;;19.52;44.99;100184.94;4985215;28;20058;-85
2022/09/19 03:20:03;;;;;;;2.13;0.70;;;;;;;19.49;45.17;100180.22;4978737;28;20062;-86
2022/09/19 03:22:58;;;;;;;1.27;0.85;;;;;;;19.53;45.05;100181.00;4987735;28;20046;-85
2022/09/19 03:25:44;;;;;;;1.52;0.70;;;;;;;19.64;44.49;100179.09;5007017;23;20058;-79
2022/09/19 03:28:30;;;;;;;9.60;1.75;;;;;;;19.67;44.53;100171.19;4997761;28;20065;-80
2022/09/19 03:31:17;;;;;;;2.72;1.00;;;;;;;19.66;44.45;100172.41;5005515;28;20065;-79
2022/09/19 03:34:03;;;;;;;3.90;0.98;;;;;;;19.58;43.98;100175.13;4982708;28;20054;-79
2022/09/19 03:36:48;;;;;;;2.90;0.80;;;;;;;19.53;44.31;100177.47;4981034;28;20053;-81
2022/09/19 03:39:38;;;;;;;2.20;0.70;;;;;;;19.67;44.18;100179.47;4993069;28;20037;-79
2022/09/19 03:42:26;;;;;;;1.98;0.70;;;;;;;19.64;44.17;100187.34;4983186;28;20053;-78
2022/09/19 03:45:11;;;;;;;3.47;0.60;;;;;;;19.54;44.11;100184.56;4991829;28;20049;-77
2022/09/19 03:47:56;;;;;;;3.90;0.70;;;;;;;19.50;44.12;100183.75;4992989;28;20049;-77
2022/09/19 03:50:41;;;;;;;4.68;1.10;;;;;;;19.48;43.12;100186.09;4998780;28;20049;-79
2022/09/19 03:53:31;;;;;;;1.25;0.80;;;;;;;19.53;43.88;100186.53;4991238;28;20118;-79
2022/09/19 03:56:16;;;;;;;7.05;1.20;;;;;;;19.51;43.85;100183.34;4995637;28;20057;-79
2022/09/19 03:59:01;;;;;;;1.88;1.05;;;;;;;19.56;43.99;100187.69;4994184;28;20053;-82
2022/09/19 04:01:48;;;;;;;1.73;0.88;;;;;;;19.57;43.73;100176.28;5021861;28;20045;-81
2022/09/19 04:04:34;;;;;;;1.05;0.60;;;;;;;19.57;43.85;100178.25;5005730;28;20053;-81
2022/09/19 04:07:20;;;;;;;0.73;0.68;;;;;;;19.63;43.75;100177.50;5014330;28;20054;-81
2022/09/19 04:10:06;;;;;;;2.78;0.75;;;;;;;19.83;42.96;100179.91;4994815;28;20053;-82
2022/09/19 04:12:51;;;;;;;1.98;1.23;;;;;;;19.81;42.75;100168.50;5010160;28;20062;-80
2022/09/19 04:15:36;;;;;;;;;;;;;;;19.58;43.01;100180.63;5001158;28;20049;-81
2022/09/19 04:18:25;;;;;;;3.38;1.00;;;;;;;18.93;43.36;100177.94;4999537;28;20377;-81
2022/09/19 04:21:11;;;;;;;2.00;1.13;;;;;;;19.15;44.42;100181.56;4988890;28;20054;-82
2022/09/19 04:24:25;;;;;;;3.45;1.30;;;;;;;19.16;44.34;100180.41;4987535;28;20527;-78
2022/09/19 04:27:30;;;;;;;4.80;1.77;;;;;;;18.80;43.01;100182.16;4996051;28;20073;-80
2022/09/19 04:30:24;;;;;;;5.05;2.35;;;;;;;18.37;42.82;100184.56;5020807;28;20049;-82
2022/09/19 04:33:13;;;;;;;4.20;1.85;;;;;;;18.26;45.05;100193.91;4998557;28;20042;-80
2022/09/19 04:36:00;;;;;;;5.63;2.20;;;;;;;18.16;44.19;100197.34;5006730;28;20049;-80
2022/09/19 04:38:48;;;;;;;6.25;2.85;;;;;;;18.35;45.08;100194.38;5012484;28;20049;-80
2022/09/19 04:41:39;;;;;;;9.75;2.60;;;;;;;18.00;44.54;100197.59;5005761;28;20049;-81
2022/09/19 04:44:28;;;;;;;5.53;2.13;;;;;;;18.53;46.37;100195.34;5005394;28;20057;-79
2022/09/19 04:47:45;;;;;;;5.75;2.05;;;;;;;18.45;44.66;100198.38;5005800;28;20408;-82
2022/09/19 04:50:30;;;;;;;4.28;2.13;;;;;;;18.95;45.42;100196.81;5007180;28;20049;-80
2022/09/19 04:53:19;;;;;;;4.07;1.95;;;;;;;19.20;44.63;100195.00;5002164;28;20106;-81
2022/09/19 04:56:07;;;;;;;4.47;2.47;;;;;;;19.23;44.46;100200.53;5000370;28;20057;-81
2022/09/19 04:58:54;;;;;;;5.32;1.95;;;;;;;19.41;44.29;100200.63;5004606;28;20041;-79
2022/09/19 05:01:39;;;;;;;8.00;2.33;;;;;;;19.18;43.07;100200.91;4995644;28;20053;-79
2022/09/19 05:04:25;;;;;;;7.05;2.55;;;;;;;19.37;44.15;100194.31;5000387;28;20049;-79
2022/09/19 05:07:13;;;;;;;8.05;2.10;;;;;;;19.07;42.74;100202.81;4994621;28;20061;-81
2022/09/19 05:10:02;;;;;;;7.65;2.15;;;;;;;18.41;45.95;100206.63;4990829;28;20065;-81
2022/09/19 05:12:52;;;;;;;3.65;1.52;;;;;;;19.06;44.87;100211.47;4999944;28;20045;-82
2022/09/19 05:15:41;;;;;;;6.13;1.80;;;;;;;19.21;44.60;100210.38;4988457;28;20534;-81
2022/09/19 05:18:28;;;;;;;6.95;1.80;;;;;;;18.81;44.57;100205.78;4980575;28;20058;-80
2022/09/19 05:21:14;;;;;;;11.63;2.45;;;;;;;18.84;42.48;100207.00;4992118;28;20050;-78
2022/09/19 05:24:00;;;;;;;5.97;1.95;;;;;;;17.92;43.77;100207.75;4977925;28;20054;-80
2022/09/19 05:26:46;;;;;;;25.33;2.53;;;;;;;17.22;46.11;100212.34;4984511;28;20049;-78
2022/09/19 05:29:36;;;;;;;12.70;2.15;;;;;;;16.92;46.75;100223.28;4989296;28;20068;-79
2022/09/19 05:32:21;;;;;;;10.57;1.83;;;;;;;16.70;48.08;100230.41;4998610;28;20049;-81
2022/09/19 05:35:21;;;;;;;7.80;2.63;;;;;;;16.86;47.42;100244.78;5010080;28;20049;-78
2022/09/19 05:38:19;;;;;;;15.68;2.40;;;;;;;16.88;47.37;100238.91;5012749;28;20072;-80
2022/09/19 05:41:38;;;;;;;8.93;2.40;;;;;;;16.33;49.42;100246.59;4990485;28;20053;-77
2022/09/19 05:44:31;;;;;;;21.13;2.90;;;;;;;16.68;49.43;100246.44;4987514;28;20053;-79
2022/09/19 05:47:18;;;;;;;7.20;2.30;;;;;;;16.57;48.93;100251.72;4994234;28;20540;-79
2022/09/19 05:50:03;;;;;;;13.30;1.83;;;;;;;17.06;49.04;100257.28;4994605;28;20050;-79
2022/09/19 05:55:55;;;;;;;11.50;2.42;;;;;;;16.98;49.89;100250.06;4996099;28;20135;-79
2022/09/19 05:58:46;;;;;;;11.52;2.58;;;;;;;16.64;50.77;100262.06;4993512;28;20045;-79
2022/09/19 06:01:31;;;;;;;;;;;;;;;16.35;52.19;100259.97;4998256;28;20050;-79
2022/09/19 06:04:16;;;;;;;;;;;;;;;16.65;51.33;100263.66;5006458;28;20397;-78
2022/09/19 06:07:04;;;;;;;13.77;3.05;;;;;;;16.39;52.16;100269.06;4990756;28;20369;-80
2022/09/19 06:09:52;;;;;;;11.13;2.63;;;;;;;17.02;50.18;100270.13;4995033;28;20531;-79
2022/09/19 06:12:37;;;;;;;13.10;2.80;;;;;;;17.18;49.95;100271.94;4994898;28;20413;-79
2022/09/19 06:15:23;;;;;;;11.18;2.67;;;;;;;17.43;49.81;100273.09;5002623;28;20066;-79
2022/09/19 06:18:09;;;;;;;6.57;2.72;;;;;;;17.39;51.11;100278.53;4997177;28;20049;-78
2022/09/19 06:20:59;;;;;;;8.38;2.58;;;;;;;17.23;51.06;100269.66;4979630;28;20105;-78
2022/09/19 06:23:50;;;;;;;13.73;3.08;;;;;;;17.17;50.86;100267.63;4979075;28;20521;-79
2022/09/19 06:26:35;;;;;;;;;;;;;;;17.06;51.54;100279.25;4979288;28;20065;-79
2022/09/19 06:29:22;;;;;;;18.90;2.67;;;;;;;17.56;51.35;100282.69;4994368;28;19917;-81
2022/09/19 06:32:27;;;;;;;8.95;2.78;;;;;;;17.68;50.65;100282.47;4996399;28;20057;-79
2022/09/19 06:35:31;;;;;;;24.88;3.30;;;;;;;17.20;51.96;100280.63;4994874;28;20046;-79
2022/09/19 06:38:16;;;;;;;13.07;3.35;;;;;;;17.24;51.35;100281.44;5001456;28;20057;-82
2022/09/19 06:41:05;;;;;;;;;;;;;;;17.37;51.80;100286.34;5007017;28;20057;-81
2022/09/19 06:44:07;;;;;;;;;;;;;;;17.74;51.53;100292.00;4996777;28;19914;-80
2022/09/19 06:47:12;;;;;;;10.73;2.47;;;;;;;17.99;51.21;100291.50;4995472;28;19914;-83
2022/09/19 06:50:13;;;;;;;17.10;2.85;;;;;;;18.42;50.23;100292.78;5001362;28;20049;-80
2022/09/19 06:53:10;;;;;;;7.22;2.05;;;;;;;18.93;49.42;100284.59;4988502;28;20054;-82
2022/09/19 06:55:56;;;;;;;12.85;3.67;;;;;;;18.86;48.72;100284.53;5006730;28;20057;-80
2022/09/19 06:58:41;;;;;;;6.97;2.65;;;;;;;18.55;49.38;100288.59;5011037;28;20058;-82
2022/09/19 07:01:27;;;;;;;10.20;3.90;;;;;;;18.46;48.96;100291.63;5027784;28;20413;-82
2022/09/19 07:04:12;;;;;;;10.80;3.38;;;;;;;18.63;46.61;100302.06;5007728;28;20049;-82
2022/09/19 07:07:10;;;;;;;5.75;3.13;;;;;;;18.38;46.57;100314.78;5010722;28;20057;-82
2022/09/19 07:10:04;;;;;;;5.00;2.85;;;;;;;18.52;46.67;100303.91;5006549;28;20045;-80
2022/09/19 07:12:55;;;;;;;14.85;3.13;;;;;;;18.82;47.17;100309.31;4994874;28;20426;-81
2022/09/19 07:15:41;;;;;;;4.50;2.85;;;;;;;18.69;46.34;100317.06;4991055;28;20049;-80
2022/09/19 07:18:27;;;;;;;9.48;3.70;;;;;;;18.34;47.64;100322.16;5006221;28;20053;-80
2022/09/19 07:21:12;;;;;;;12.98;4.03;;;;;;;18.31;48.21;100322.94;4992771;28;20045;-81
2022/09/19 07:24:04;;;;;;;9.43;4.25;;;;;;;18.13;48.73;100330.22;5016791;28;20046;-80
2022/09/19 07:27:09;;;;;;;5.43;3.42;;;;;;;18.07;49.77;100346.25;4996691;28;20062;-78
2022/09/19 07:29:56;;;;;;;9.68;4.63;;;;;;;18.59;48.53;100345.28;5003580;28;20085;-81
2022/09/19 07:32:41;;;;;;;8.98;3.65;;;;;;;18.85;48.20;100336.09;4992538;28;20061;-81
2022/09/19 07:35:29;;;;;;;10.73;2.58;;;;;;;18.95;49.07;100334.59;4993573;28;20053;-78
2022/09/19 07:38:19;;;;;;;5.40;2.85;;;;;;;19.38;47.32;100347.56;5011158;28;20087;-78
2022/09/19 07:41:27;;;;;;;7.97;3.90;;;;;;;18.90;46.63;100354.22;5003875;28;20049;-79
2022/09/19 07:44:33;;;;;;;8.65;4.20;;;;;;;18.95;47.16;100353.88;5003000;28;20046;-81
2022/09/19 07:47:45;;;;;;;7.60;4.03;;;;;;;18.93;48.00;100354.28;4997417;28;20065;-79
2022/09/19 07:50:43;;;;;;;7.32;4.13;;;;;;;19.64;46.41;100365.88;4996955;28;20049;-80
2022/09/19 07:53:36;;;;;;;7.30;2.97;;;;;;;19.39;47.49;100370.41;5000872;28;20069;-80
2022/09/19 07:56:21;;;;;;;6.88;3.65;;;;;;;20.15;46.06;100376.00;5000120;28;20417;-82
2022/09/19 07:59:06;;;;;;;5.80;3.70;;;;;;;26.94;31.57;100388.38;5000146;28;20608;-81
2022/09/19 08:02:11;;;;;;;8.90;3.92;;;;;;;28.29;28.08;100384.88;5005543;28;20053;-80
2022/09/19 08:04:57;;;;;;;9.90;4.00;;;;;;;28.71;28.16;100391.97;4999178;28;20053;-76
2022/09/19 08:07:41;;;;;;;5.82;3.33;;;;;;;32.25;23.44;100415.03;4997189;28;20053;-78
2022/09/19 08:10:27;;;;;;;6.60;3.97;;;;;;;35.57;19.51;100423.53;4996206;28;20069;-79
2022/09/19 08:13:13;;;;;;;7.97;3.28;;;;;;;36.51;17.94;100432.34;5001578;28;20069;-80
2022/09/19 08:15:59;;;;;;;7.45;3.15;;;;;;;33.03;21.63;100421.88;4996461;28;20516;-78
2022/09/19 08:18:44;;;;;;;5.97;2.92;;;;;;;34.01;20.96;100431.47;4995321;28;20516;-77
2022/09/19 08:21:31;;;;;;;8.23;3.88;;;;;;;35.38;19.84;100440.00;4995429;28;20069;-78
2022/09/19 08:24:17;;;;;;;7.25;3.55;;;;;;;30.96;24.62;100432.16;4996432;28;20413;-78
2022/09/19 08:27:03;;;;;;;9.15;4.70;;;;;;;32.52;23.40;100433.13;4999804;28;20049;-78
2022/09/19 08:29:48;;;;;;;4.78;2.90;;;;;;;38.38;17.19;100440.88;4995118;28;20050;-78
2022/09/19 08:32:34;;;;;;;7.80;3.47;;;;;;;33.46;21.40;100432.63;4996196;28;20057;-78
2022/09/19 08:35:21;;;;;;;6.10;2.58;;;;;;;33.14;21.79;100435.44;4995019;28;20049;-79
2022/09/19 08:38:10;;;;;;;12.20;3.75;;;;;;;31.32;24.10;100437.16;4995249;28;20053;-78
2022/09/19 08:41:19;;;;;;;9.57;3.33;;;;;;;39.11;16.22;100455.91;4995722;28;20069;-79
2022/09/19 08:44:14;;;;;;;10.98;3.40;;;;;;;35.77;18.70;100451.06;4995087;28;20058;-79
2022/09/19 08:47:12;;;;;;;7.97;3.05;;;;;;;33.17;21.90;100440.16;4995019;28;20049;-79
2022/09/19 08:50:05;;;;;;;3.92;2.90;;;;;;;32.73;23.00;100437.81;4999201;28;20053;-79
2022/09/19 08:52:58;;;;;;;3.03;1.95;;;;;;;38.23;17.24;100446.00;4997241;28;20429;-80
2022/09/19 08:55:48;;;;;;;4.78;3.50;;;;;;;33.76;21.30;100444.84;4994946;28;20049;-78
2022/09/19 08:58:46;;;;;;;3.92;2.85;;;;;;;37.30;17.41;100457.19;4994500;28;20061;-79
2022/09/19 09:01:46;;;;;;;4.20;2.78;;;;;;;41.57;13.44;100470.19;4996908;28;20421;-76
2022/09/19 09:04:55;;;;;;;13.55;2.97;;;;;;;38.07;15.48;100459.66;4991140;28;20045;-77
2022/09/19 09:08:05;;;;;;;4.53;3.10;;;;;;;35.57;18.72;100460.31;4990605;28;20041;-79
2022/09/19 09:11:43;;;;;;;4.30;2.80;;;;;;;36.05;18.29;100468.41;4980811;28;20422;-78
2022/09/19 09:14:38;;;;;;;4.93;2.53;;;;;;;35.76;18.17;100475.75;4989354;28;20433;-79
2022/09/19 09:17:35;;;;;;;4.13;3.10;;;;;;;29.98;24.06;100450.69;4976854;28;20045;-77
2022/09/19 09:20:43;;;;;;;4.43;3.50;;;;;;;29.53;24.98;100454.59;4978015;28;20049;-79
2022/09/19 09:23:35;;;;;;;6.75;3.38;;;;;;;34.03;20.64;100457.94;4984834;28;20042;-79
2022/09/19 09:26:44;;;;;;;4.90;3.08;;;;;;;36.45;17.24;100468.34;5005565;23;20053;-76
2022/09/19 09:29:37;;;;;;;4.20;3.05;;;;;;;39.25;15.48;100471.91;4998714;28;20053;-76
2022/09/19 09:32:40;;;;;;;3.63;2.30;;;;;;;39.25;15.93;100478.38;4994737;28;20509;-78
2022/09/19 09:35:42;;;;;;;6.93;2.45;;;;;;;37.85;16.39;100465.22;4995610;28;20049;-79
2022/09/19 09:38:33;;;;;;;4.43;2.85;;;;;;;36.57;17.62;100469.22;5000747;28;20508;-76
2022/09/19 09:44:39;;;;;;;4.28;2.65;;;;;;;35.06;18.04;100466.47;4998838;28;20050;-76
2022/09/19 09:47:30;;;;;;;4.88;2.70;;;;;;;30.67;23.93;100456.97;4977460;28;20076;-78
2022/09/19 09:50:48;;;;;;;7.35;3.30;;;;;;;26.57;28.95;100447.38;4973439;28;20054;-78
2022/09/19 09:54:05;;;;;;;6.88;3.72;;;;;;;25.85;30.73;100447.19;4976127;28;20046;-77
2022/09/19 09:56:58;;;;;;;5.18;3.17;;;;;;;29.06;26.42;100440.50;4974833;28;20050;-77
2022/09/19 10:06:30;;;;;;;5.75;2.88;;;;;;;27.98;28.29;100446.84;4975502;28;20054;-78
2022/09/19 10:09:26;;;;;;;4.97;4.18;;;;;;;26.33;30.13;100450.25;4991998;28;20062;-76
2022/09/19 10:12:32;;;;;;;4.05;2.97;;;;;;;29.07;25.91;100449.69;4977587;28;20045;-78
2022/09/19 10:15:21;;;;;;;4.75;2.60;;;;;;;29.49;26.79;100453.94;4975110;28;20058;-73
2022/09/19 10:18:19;;;;;;;15.45;3.33;;;;;;;28.05;28.37;100457.00;4993509;28;20520;-76
2022/09/19 10:21:13;;;;;;;;;;;;;;;29.33;27.09;100459.66;4988736;28;20056;-74
2022/09/19 10:24:42;;;;;;;5.72;2.53;;;;;;;31.47;24.36;100473.88;4980992;28;19917;-78
2022/09/19 10:27:33;;;;;;;7.60;2.40;;;;;;;39.95;15.47;100484.94;4985502;28;20521;-77
2022/09/19 10:30:36;;;;;;;4.03;2.83;;;;;;;38.54;16.09;100487.69;4984992;28;20048;-77
2022/09/19 10:33:28;;;;;;;5.80;2.65;;;;;;;36.69;18.17;100476.56;5002187;28;20045;-78
2022/09/19 10:36:22;;;;;;;3.60;2.53;;;;;;;35.72;17.96;100471.59;4986864;28;20053;-77
2022/09/19 10:39:13;;;;;;;5.63;3.25;;;;;;;37.41;16.78;100474.28;4988574;28;20504;-76
2022/09/19 10:42:00;;;;;;;7.82;2.25;;;;;;;43.08;12.42;100493.25;4989415;28;20049;-76
2022/09/19 10:44:52;;;;;;;3.80;2.60;;;;;;;44.55;11.59;100496.22;4999379;28;20431;-76
2022/09/19 10:47:37;;;;;;;8.02;3.17;;;;;;;42.07;12.22;100484.66;4993787;28;20037;-76
2022/09/19 10:50:33;;;;;;;6.32;2.67;;;;;;;40.46;13.58;100481.28;4989064;28;20050;-76
2022/09/19 10:53:32;;;;;;;5.35;2.55;;;;;;;40.30;13.87;100482.16;4982437;28;20061;-75
2022/09/19 10:56:23;;;;;;;6.03;2.67;;;;;;;40.51;14.18;100477.63;4992493;28;20114;-76
2022/09/19 10:59:11;;;;;;;3.17;2.70;;;;;;;40.11;13.73;100478.38;4992109;28;20045;-76
2022/09/19 11:02:20;;;;;;;;;;;;;;;40.64;13.95;100487.69;4993185;28;20061;-76
2022/09/19 11:05:09;;;;;;;5.75;2.50;;;;;;;42.54;11.23;100493.59;4998238;28;19913;-76
2022/09/19 11:07:54;;;;;;;4.28;2.30;;;;;;;45.72;9.04;100498.16;4985806;28;20046;-77
2022/09/19 11:10:45;;;;;;;4.97;1.52;;;;;;;48.88;8.38;100499.00;4992336;28;20418;-78
2022/09/19 11:13:43;;;;;;;6.07;2.60;;;;;;;43.98;10.89;100480.06;4989026;28;20045;-76
2022/09/19 11:16:39;;;;;;;12.45;2.92;;;;;;;46.02;9.16;100491.78;4988127;28;20037;-75
2022/09/19 11:19:31;;;;;;;5.10;1.95;;;;;;;44.77;10.14;100485.53;4986523;28;20528;-77
2022/09/19 11:22:22;;;;;;;2.95;2.42;;;;;;;41.66;12.39;100484.13;4999164;28;20049;-76
2022/09/19 11:25:24;;;;;;;12.32;2.58;;;;;;;44.47;8.87;100481.03;4993312;28;20045;-78
2022/09/19 11:28:30;;;;;;;5.13;1.92;;;;;;;45.89;9.26;100501.31;4972368;28;20045;-78
2022/09/19 11:32:03;;;;;;;2.90;1.77;;;;;;;49.39;6.91;100502.00;4986598;28;20037;-77
2022/09/19 11:35:15;;;;;;;10.52;2.15;;;;;;;47.75;7.52;100501.91;4983520;28;20065;-76
2022/09/19 11:38:19;;;;;;;4.68;1.85;;;;;;;47.44;8.22;100495.47;4984114;28;20061;-76
2022/09/19 11:41:17;;;;;;;3.53;1.80;;;;;;;46.00;8.21;100495.22;4985907;28;20050;-76
2022/09/19 11:44:26;;;;;;;53.97;3.05;;;;;;;46.61;8.54;100499.09;4987130;28;20049;-75
2022/09/19 11:47:40;;;;;;;5.60;1.90;;;;;;;43.11;9.79;100485.66;4989941;28;20053;-77
2022/09/19 11:50:48;;;;;;;6.47;1.73;;;;;;;45.04;8.01;100486.97;4986917;28;20045;-77
2022/09/19 11:53:42;;;;;;;6.18;2.20;;;;;;;48.21;7.20;100493.09;4988997;28;20038;-76
2022/09/19 11:57:00;;;;;;;11.20;1.60;;;;;;;47.69;8.26;100484.06;4992046;28;20531;-77
2022/09/19 12:00:04;;;;;;;6.82;2.28;;;;;;;43.52;9.42;100478.66;4983856;28;20053;-76
2022/09/19 12:03:37;;;;;;;4.95;2.22;;;;;;;48.16;7.79;100482.53;4985736;28;20449;-76
2022/09/19 12:06:49;;;;;;;6.20;2.42;;;;;;;41.70;10.80;100470.31;4984317;28;20054;-76
2022/09/19 12:09:41;;;;;;;6.90;2.22;;;;;;;43.57;9.62;100464.25;4989309;28;20639;-76
2022/09/19 12:12:30;;;;;;;3.60;1.90;;;;;;;45.87;8.05;100476.00;4991806;28;20042;-77
2022/09/19 12:15:28;;;;;;;5.10;1.92;;;;;;;42.49;10.46;100465.09;4991853;28;20526;-77
2022/09/19 12:18:29;;;;;;;7.25;2.38;;;;;;;38.62;13.27;100449.69;4993342;28;20053;-76
2022/09/19 12:21:19;;;;;;;4.05;1.60;;;;;;;44.81;9.27;100465.84;4992520;28;20050;-78
2022/09/19 12:27:19;;;;;;;72.60;17.80;;;;;;;36.25;16.60;100434.41;4992251;28;20046;-76
2022/09/19 12:30:13;;;;;;;7.53;2.60;;;;;;;33.13;18.22;100414.94;4987389;28;20045;-76
2022/09/19 12:33:22;;;;;;;22.15;4.95;;;;;;;31.64;21.02;100426.63;4995856;28;20405;-76
2022/09/19 12:36:32;;;;;;;10.85;2.00;;;;;;;30.70;19.82;100415.97;5000767;28;20122;-76
2022/09/19 12:39:45;;;;;;;7.65;2.88;;;;;;;30.06;20.65;100407.13;5000197;28;20105;-75
2022/09/19 12:42:46;;;;;;;11.68;2.80;;;;;;;29.04;20.78;100408.59;4995661;28;20057;-77
2022/09/19 12:45:44;;;;;;;4.70;1.98;;;;;;;28.80;21.37;100402.56;4995084;28;20053;-76
2022/09/19 12:48:45;;;;;;;3.50;1.92;;;;;;;28.38;22.67;100405.38;4997343;28;20061;-77
2022/09/19 12:52:12;;;;;;;4.20;2.00;;;;;;;28.38;21.51;100410.19;4998778;28;20409;-77
2022/09/19 12:55:03;;;;;;;6.25;1.70;;;;;;;27.61;22.82;100413.88;4996512;28;20065;-75
2022/09/19 12:58:14;;;;;;;3.53;1.80;;;;;;;27.77;22.11;100399.88;4994001;28;20524;-78
2022/09/19 13:01:14;;;;;;;3.50;1.70;;;;;;;27.56;24.25;100401.22;4993469;28;20045;-77
2022/09/19 13:04:29;;;;;;;4.47;1.73;;;;;;;27.59;24.43;100399.56;4993790;28;20049;-75
2022/09/19 13:07:49;;;;;;;5.03;1.77;;;;;;;27.61;22.81;100402.72;4994611;28;20529;-76
2022/09/19 13:10:49;;;;;;;2.33;1.08;;;;;;;27.39;22.04;100398.84;4999059;28;20520;-75
2022/09/19 13:13:51;;;;;;;2.00;1.10;;;;;;;27.46;20.61;100404.25;4997549;28;20049;-77
2022/09/19 13:23:30;;;;;;;2.13;1.15;;;;;;;27.53;21.17;100401.34;4996689;28;20053;-77
2022/09/19 13:26:17;;;;;;;1.85;1.30;;;;;;;27.12;22.79;100394.31;4996387;28;20528;-77
2022/09/19 13:29:29;;;;;;;6.63;1.65;;;;;;;26.80;26.14;100388.69;4993416;28;20061;-76
2022/09/19 13:32:53;;;;;;;4.60;1.20;;;;;;;26.45;25.94;100390.28;4993965;28;20049;-75
2022/09/19 13:35:52;;;;;;;2.78;1.45;;;;;;;26.43;22.55;100392.69;4994182;28;20552;-77
2022/09/19 13:38:47;;;;;;;2.40;1.27;;;;;;;26.68;23.50;100390.16;4996579;28;20049;-75
2022/09/19 13:41:35;;;;;;;1.83;0.93;;;;;;;26.71;22.75;100391.31;4995666;28;20049;-75
2022/09/19 13:44:36;;;;;;;4.03;1.10;;;;;;;26.46;24.31;100389.06;4999458;28;20520;-76
2022/09/19 13:47:27;;;;;;;4.50;1.35;;;;;;;26.56;21.97;100395.63;4994995;28;20072;-75
2022/09/19 13:50:35;;;;;;;2.08;1.00;;;;;;;26.68;23.72;100392.16;4995620;28;20041;-77
2022/09/19 13:53:44;;;;;;;4.25;0.93;;;;;;;26.57;23.12;100383.22;4996031;28;20049;-75
2022/09/19 13:56:35;;;;;;;1.98;0.98;;;;;;;25.86;24.98;100379.88;4990846;28;20066;-76
2022/09/19 13:59:26;;;;;;;8.70;1.50;;;;;;;26.30;23.72;100384.22;4985625;28;20053;-76
2022/09/19 14:02:11;;;;;;;4.68;1.02;;;;;;;26.54;23.92;100387.69;4993904;28;20057;-75